sensor_id;sensor_type;location;lat;lon;timestamp;P1;durP1;ratioP1;P2;durP2;ratioP2
70549;SDS011;58101;48.658;2.328;2023-04-30T00:01:54;16.60;;;7.00;;
70549;SDS011;58101;48.658;2.328;2023-04-30T00:04:20;17.30;;;7.07;;
70549;SDS011;58101;48.658;2.328;2023-04-30T00:06:46;15.55;;;6.25;;
70549;SDS011;58101;48.658;2.328;2023-04-30T00:09:11;16.13;;;6.43;;
70549;SDS011;58101;48.658;2.328;2023-04-30T00:11:37;15.68;;;6.85;;
70549;SDS011;58101;48.658;2.328;2023-04-30T00:14:03;15.20;;;6.55;;
70549;SDS011;58101;48.658;2.328;2023-04-30T00:16:28;16.60;;;6.63;;
70549;SDS011;58101;48.658;2.328;2023-04-30T00:18:54;16.67;;;6.82;;
70549;SDS011;58101;48.658;2.328;2023-04-30T00:21:20;16.80;;;6.50;;
70549;SDS011;58101;48.658;2.328;2023-04-30T00:23:45;17.50;;;6.93;;
70549;SDS011;58101;48.658;2.328;2023-04-30T00:26:11;16.02;;;7.22;;
70549;SDS011;58101;48.658;2.328;2023-04-30T00:28:36;16.15;;;6.90;;
70549;SDS011;58101;48.658;2.328;2023-04-30T00:31:02;16.67;;;6.90;;
70549;SDS011;58101;48.658;2.328;2023-04-30T00:33:30;17.77;;;7.57;;
70549;SDS011;58101;48.658;2.328;2023-04-30T00:35:56;16.38;;;7.20;;
70549;SDS011;58101;48.658;2.328;2023-04-30T00:38:22;18.48;;;7.30;;
70549;SDS011;58101;48.658;2.328;2023-04-30T00:40:48;18.67;;;7.70;;
70549;SDS011;58101;48.658;2.328;2023-04-30T00:43:14;18.73;;;7.35;;
70549;SDS011;58101;48.658;2.328;2023-04-30T00:45:42;18.90;;;7.78;;
70549;SDS011;58101;48.658;2.328;2023-04-30T00:48:08;18.27;;;7.57;;
70549;SDS011;58101;48.658;2.328;2023-04-30T00:50:34;18.08;;;8.02;;
70549;SDS011;58101;48.658;2.328;2023-04-30T00:53:01;18.75;;;7.55;;
70549;SDS011;58101;48.658;2.328;2023-04-30T00:55:26;19.35;;;7.63;;
70549;SDS011;58101;48.658;2.328;2023-04-30T00:57:53;17.42;;;7.55;;
70549;SDS011;58101;48.658;2.328;2023-04-30T01:00:19;18.73;;;7.20;;
70549;SDS011;58101;48.658;2.328;2023-04-30T01:02:45;19.42;;;7.95;;
70549;SDS011;58101;48.658;2.328;2023-04-30T01:05:12;21.00;;;7.93;;
70549;SDS011;58101;48.658;2.328;2023-04-30T01:07:37;19.38;;;7.95;;
70549;SDS011;58101;48.658;2.328;2023-04-30T01:10:08;17.10;;;7.55;;
70549;SDS011;58101;48.658;2.328;2023-04-30T01:12:40;18.55;;;8.38;;
70549;SDS011;58101;48.658;2.328;2023-04-30T01:15:31;19.67;;;7.82;;
70549;SDS011;58101;48.658;2.328;2023-04-30T01:18:24;18.95;;;7.93;;
70549;SDS011;58101;48.658;2.328;2023-04-30T01:21:05;20.50;;;8.05;;
70549;SDS011;58101;48.658;2.328;2023-04-30T01:29:30;20.13;;;8.20;;
70549;SDS011;58101;48.658;2.328;2023-04-30T01:31:58;18.83;;;8.25;;
70549;SDS011;58101;48.658;2.328;2023-04-30T01:34:26;20.77;;;9.05;;
70549;SDS011;58101;48.658;2.328;2023-04-30T01:47:31;24.05;;;9.30;;
70549;SDS011;58101;48.658;2.328;2023-04-30T01:53:01;23.70;;;8.95;;
70549;SDS011;58101;48.658;2.328;2023-04-30T01:58:04;22.95;;;9.48;;
70549;SDS011;58101;48.658;2.328;2023-04-30T02:00:34;20.98;;;8.73;;
70549;SDS011;58101;48.658;2.328;2023-04-30T02:03:00;22.45;;;9.23;;
70549;SDS011;58101;48.658;2.328;2023-04-30T02:05:26;23.50;;;9.05;;
70549;SDS011;58101;48.658;2.328;2023-04-30T02:07:52;21.17;;;9.13;;
70549;SDS011;58101;48.658;2.328;2023-04-30T02:10:19;22.08;;;8.45;;
70549;SDS011;58101;48.658;2.328;2023-04-30T02:12:45;22.15;;;9.35;;
70549;SDS011;58101;48.658;2.328;2023-04-30T02:15:11;19.70;;;8.40;;
70549;SDS011;58101;48.658;2.328;2023-04-30T02:17:37;18.60;;;8.02;;
70549;SDS011;58101;48.658;2.328;2023-04-30T02:20:03;20.17;;;8.65;;
70549;SDS011;58101;48.658;2.328;2023-04-30T02:22:29;20.15;;;8.35;;
70549;SDS011;58101;48.658;2.328;2023-04-30T02:24:54;20.52;;;8.63;;
70549;SDS011;58101;48.658;2.328;2023-04-30T02:27:22;21.55;;;8.55;;
70549;SDS011;58101;48.658;2.328;2023-04-30T02:29:49;21.63;;;8.82;;
70549;SDS011;58101;48.658;2.328;2023-04-30T02:32:15;20.17;;;8.63;;
70549;SDS011;58101;48.658;2.328;2023-04-30T02:34:40;19.65;;;8.60;;
70549;SDS011;58101;48.658;2.328;2023-04-30T02:37:06;21.00;;;8.52;;
70549;SDS011;58101;48.658;2.328;2023-04-30T02:39:32;21.13;;;8.15;;
70549;SDS011;58101;48.658;2.328;2023-04-30T02:41:58;23.25;;;9.05;;
70549;SDS011;58101;48.658;2.328;2023-04-30T02:44:24;21.05;;;8.05;;
70549;SDS011;58101;48.658;2.328;2023-04-30T02:46:50;19.23;;;8.02;;
70549;SDS011;58101;48.658;2.328;2023-04-30T02:49:16;18.65;;;7.80;;
70549;SDS011;58101;48.658;2.328;2023-04-30T02:51:41;22.05;;;8.07;;
70549;SDS011;58101;48.658;2.328;2023-04-30T02:54:07;19.90;;;8.18;;
70549;SDS011;58101;48.658;2.328;2023-04-30T02:56:34;17.42;;;7.50;;
70549;SDS011;58101;48.658;2.328;2023-04-30T02:59:00;19.00;;;7.80;;
70549;SDS011;58101;48.658;2.328;2023-04-30T03:01:26;17.92;;;7.72;;
70549;SDS011;58101;48.658;2.328;2023-04-30T03:03:51;18.17;;;7.75;;
70549;SDS011;58101;48.658;2.328;2023-04-30T03:06:17;17.10;;;7.22;;
70549;SDS011;58101;48.658;2.328;2023-04-30T03:08:43;17.10;;;7.63;;
70549;SDS011;58101;48.658;2.328;2023-04-30T03:11:08;18.90;;;7.68;;
70549;SDS011;58101;48.658;2.328;2023-04-30T03:13:34;20.52;;;8.10;;
70549;SDS011;58101;48.658;2.328;2023-04-30T03:16:00;17.77;;;7.90;;
70549;SDS011;58101;48.658;2.328;2023-04-30T03:18:28;18.95;;;8.38;;
70549;SDS011;58101;48.658;2.328;2023-04-30T03:20:54;19.83;;;7.75;;
70549;SDS011;58101;48.658;2.328;2023-04-30T03:23:21;20.30;;;8.05;;
70549;SDS011;58101;48.658;2.328;2023-04-30T03:25:47;21.27;;;8.50;;
70549;SDS011;58101;48.658;2.328;2023-04-30T03:28:13;18.05;;;7.90;;
70549;SDS011;58101;48.658;2.328;2023-04-30T03:30:39;19.67;;;8.02;;
70549;SDS011;58101;48.658;2.328;2023-04-30T03:33:05;20.60;;;7.93;;
70549;SDS011;58101;48.658;2.328;2023-04-30T03:35:31;20.02;;;8.60;;
70549;SDS011;58101;48.658;2.328;2023-04-30T03:37:58;18.40;;;8.13;;
70549;SDS011;58101;48.658;2.328;2023-04-30T03:40:24;17.85;;;7.53;;
70549;SDS011;58101;48.658;2.328;2023-04-30T03:42:50;18.88;;;7.30;;
70549;SDS011;58101;48.658;2.328;2023-04-30T03:45:15;19.73;;;8.30;;
70549;SDS011;58101;48.658;2.328;2023-04-30T03:47:41;19.35;;;8.05;;
70549;SDS011;58101;48.658;2.328;2023-04-30T03:50:08;21.75;;;8.55;;
70549;SDS011;58101;48.658;2.328;2023-04-30T03:52:34;17.17;;;7.22;;
70549;SDS011;58101;48.658;2.328;2023-04-30T03:55:00;16.95;;;7.35;;
70549;SDS011;58101;48.658;2.328;2023-04-30T03:57:27;18.15;;;7.53;;
70549;SDS011;58101;48.658;2.328;2023-04-30T03:59:53;21.08;;;8.25;;
70549;SDS011;58101;48.658;2.328;2023-04-30T04:02:19;18.33;;;7.70;;
70549;SDS011;58101;48.658;2.328;2023-04-30T04:04:45;20.85;;;7.93;;
70549;SDS011;58101;48.658;2.328;2023-04-30T04:07:11;20.17;;;7.88;;
70549;SDS011;58101;48.658;2.328;2023-04-30T04:09:37;17.70;;;7.90;;
70549;SDS011;58101;48.658;2.328;2023-04-30T04:12:02;18.60;;;7.55;;
70549;SDS011;58101;48.658;2.328;2023-04-30T04:14:29;19.85;;;8.18;;
70549;SDS011;58101;48.658;2.328;2023-04-30T04:16:54;19.30;;;8.20;;
70549;SDS011;58101;48.658;2.328;2023-04-30T04:19:22;18.08;;;7.55;;
70549;SDS011;58101;48.658;2.328;2023-04-30T04:21:48;19.52;;;7.97;;
70549;SDS011;58101;48.658;2.328;2023-04-30T04:24:13;18.27;;;8.00;;
70549;SDS011;58101;48.658;2.328;2023-04-30T04:26:39;18.10;;;7.75;;
70549;SDS011;58101;48.658;2.328;2023-04-30T04:29:08;17.65;;;7.78;;
70549;SDS011;58101;48.658;2.328;2023-04-30T04:31:34;19.02;;;7.78;;
70549;SDS011;58101;48.658;2.328;2023-04-30T04:34:01;22.08;;;8.20;;
70549;SDS011;58101;48.658;2.328;2023-04-30T04:36:28;20.17;;;8.27;;
70549;SDS011;58101;48.658;2.328;2023-04-30T04:38:55;19.75;;;8.10;;
70549;SDS011;58101;48.658;2.328;2023-04-30T04:41:21;19.27;;;8.32;;
70549;SDS011;58101;48.658;2.328;2023-04-30T04:43:48;18.88;;;8.45;;
70549;SDS011;58101;48.658;2.328;2023-04-30T04:46:14;19.08;;;7.85;;
70549;SDS011;58101;48.658;2.328;2023-04-30T04:48:41;20.67;;;8.85;;
70549;SDS011;58101;48.658;2.328;2023-04-30T04:51:07;18.88;;;7.85;;
70549;SDS011;58101;48.658;2.328;2023-04-30T04:53:33;18.95;;;8.52;;
70549;SDS011;58101;48.658;2.328;2023-04-30T04:56:00;20.35;;;8.57;;
70549;SDS011;58101;48.658;2.328;2023-04-30T04:58:26;18.67;;;7.80;;
70549;SDS011;58101;48.658;2.328;2023-04-30T05:00:52;18.27;;;7.60;;
70549;SDS011;58101;48.658;2.328;2023-04-30T05:03:18;19.35;;;8.27;;
70549;SDS011;58101;48.658;2.328;2023-04-30T05:05:44;21.33;;;8.85;;
70549;SDS011;58101;48.658;2.328;2023-04-30T05:08:10;19.48;;;8.18;;
70549;SDS011;58101;48.658;2.328;2023-04-30T05:10:36;19.80;;;8.60;;
70549;SDS011;58101;48.658;2.328;2023-04-30T05:13:02;19.75;;;7.95;;
70549;SDS011;58101;48.658;2.328;2023-04-30T05:15:28;19.15;;;8.68;;
70549;SDS011;58101;48.658;2.328;2023-04-30T05:17:53;20.05;;;8.50;;
70549;SDS011;58101;48.658;2.328;2023-04-30T05:20:19;21.23;;;8.35;;
70549;SDS011;58101;48.658;2.328;2023-04-30T05:22:45;22.00;;;8.98;;
70549;SDS011;58101;48.658;2.328;2023-04-30T05:25:10;21.30;;;8.95;;
70549;SDS011;58101;48.658;2.328;2023-04-30T05:27:36;22.52;;;9.32;;
70549;SDS011;58101;48.658;2.328;2023-04-30T05:30:02;21.33;;;8.85;;
70549;SDS011;58101;48.658;2.328;2023-04-30T05:32:28;20.50;;;8.70;;
70549;SDS011;58101;48.658;2.328;2023-04-30T05:34:53;18.60;;;7.82;;
70549;SDS011;58101;48.658;2.328;2023-04-30T05:37:19;20.77;;;9.00;;
70549;SDS011;58101;48.658;2.328;2023-04-30T05:39:46;23.45;;;9.32;;
70549;SDS011;58101;48.658;2.328;2023-04-30T05:42:12;24.02;;;9.05;;
70549;SDS011;58101;48.658;2.328;2023-04-30T05:44:39;20.75;;;8.75;;
70549;SDS011;58101;48.658;2.328;2023-04-30T05:47:05;21.63;;;8.52;;
70549;SDS011;58101;48.658;2.328;2023-04-30T05:49:30;21.55;;;8.90;;
70549;SDS011;58101;48.658;2.328;2023-04-30T05:51:56;19.50;;;8.48;;
70549;SDS011;58101;48.658;2.328;2023-04-30T05:54:22;22.70;;;9.40;;
70549;SDS011;58101;48.658;2.328;2023-04-30T05:56:47;21.90;;;9.30;;
70549;SDS011;58101;48.658;2.328;2023-04-30T05:59:13;20.60;;;9.18;;
70549;SDS011;58101;48.658;2.328;2023-04-30T06:01:38;21.70;;;9.60;;
70549;SDS011;58101;48.658;2.328;2023-04-30T06:04:04;22.73;;;9.98;;
70549;SDS011;58101;48.658;2.328;2023-04-30T06:06:30;22.50;;;10.00;;
70549;SDS011;58101;48.658;2.328;2023-04-30T06:08:55;24.13;;;10.18;;
70549;SDS011;58101;48.658;2.328;2023-04-30T06:11:21;20.55;;;9.05;;
70549;SDS011;58101;48.658;2.328;2023-04-30T06:13:49;24.55;;;10.90;;
70549;SDS011;58101;48.658;2.328;2023-04-30T06:16:15;23.83;;;10.18;;
70549;SDS011;58101;48.658;2.328;2023-04-30T06:18:41;26.88;;;10.43;;
70549;SDS011;58101;48.658;2.328;2023-04-30T06:21:06;22.38;;;10.15;;
70549;SDS011;58101;48.658;2.328;2023-04-30T06:23:32;23.52;;;9.98;;
70549;SDS011;58101;48.658;2.328;2023-04-30T06:25:58;21.80;;;9.55;;
70549;SDS011;58101;48.658;2.328;2023-04-30T06:28:24;19.67;;;9.40;;
70549;SDS011;58101;48.658;2.328;2023-04-30T06:30:49;22.50;;;10.05;;
70549;SDS011;58101;48.658;2.328;2023-04-30T06:33:16;22.83;;;9.60;;
70549;SDS011;58101;48.658;2.328;2023-04-30T06:35:41;23.67;;;10.23;;
70549;SDS011;58101;48.658;2.328;2023-04-30T06:38:07;23.80;;;10.05;;
70549;SDS011;58101;48.658;2.328;2023-04-30T06:40:33;22.00;;;10.15;;
70549;SDS011;58101;48.658;2.328;2023-04-30T06:42:59;23.65;;;10.10;;
70549;SDS011;58101;48.658;2.328;2023-04-30T06:45:25;24.00;;;10.07;;
70549;SDS011;58101;48.658;2.328;2023-04-30T06:47:50;22.33;;;9.93;;
70549;SDS011;58101;48.658;2.328;2023-04-30T06:50:17;22.40;;;9.77;;
70549;SDS011;58101;48.658;2.328;2023-04-30T06:52:43;22.95;;;9.80;;
70549;SDS011;58101;48.658;2.328;2023-04-30T06:55:09;20.60;;;9.32;;
70549;SDS011;58101;48.658;2.328;2023-04-30T06:57:35;20.77;;;9.70;;
70549;SDS011;58101;48.658;2.328;2023-04-30T07:00:02;20.00;;;8.90;;
70549;SDS011;58101;48.658;2.328;2023-04-30T07:02:31;22.85;;;9.82;;
70549;SDS011;58101;48.658;2.328;2023-04-30T07:04:57;22.65;;;9.27;;
70549;SDS011;58101;48.658;2.328;2023-04-30T07:07:22;22.15;;;10.27;;
70549;SDS011;58101;48.658;2.328;2023-04-30T07:09:48;26.33;;;12.90;;
70549;SDS011;58101;48.658;2.328;2023-04-30T07:12:14;25.95;;;11.07;;
70549;SDS011;58101;48.658;2.328;2023-04-30T07:14:40;22.48;;;10.02;;
70549;SDS011;58101;48.658;2.328;2023-04-30T07:17:06;19.95;;;9.57;;
70549;SDS011;58101;48.658;2.328;2023-04-30T07:19:32;24.48;;;9.82;;
70549;SDS011;58101;48.658;2.328;2023-04-30T07:21:57;22.88;;;10.27;;
70549;SDS011;58101;48.658;2.328;2023-04-30T07:24:26;21.95;;;10.20;;
70549;SDS011;58101;48.658;2.328;2023-04-30T07:26:51;21.70;;;9.80;;
70549;SDS011;58101;48.658;2.328;2023-04-30T07:29:17;20.15;;;10.15;;
70549;SDS011;58101;48.658;2.328;2023-04-30T07:31:43;22.38;;;10.25;;
70549;SDS011;58101;48.658;2.328;2023-04-30T07:37:38;21.48;;;9.50;;
70549;SDS011;58101;48.658;2.328;2023-04-30T07:40:08;22.58;;;9.43;;
70549;SDS011;58101;48.658;2.328;2023-04-30T07:42:38;21.50;;;10.15;;
70549;SDS011;58101;48.658;2.328;2023-04-30T07:47:58;21.83;;;9.63;;
70549;SDS011;58101;48.658;2.328;2023-04-30T07:50:23;19.73;;;9.18;;
70549;SDS011;58101;48.658;2.328;2023-04-30T07:52:49;20.15;;;9.60;;
70549;SDS011;58101;48.658;2.328;2023-04-30T07:55:15;20.95;;;9.60;;
70549;SDS011;58101;48.658;2.328;2023-04-30T07:57:41;20.42;;;10.13;;
70549;SDS011;58101;48.658;2.328;2023-04-30T08:00:07;19.50;;;9.18;;
70549;SDS011;58101;48.658;2.328;2023-04-30T08:02:33;19.65;;;9.35;;
70549;SDS011;58101;48.658;2.328;2023-04-30T08:05:17;19.65;;;9.13;;
70549;SDS011;58101;48.658;2.328;2023-04-30T08:07:42;19.27;;;8.90;;
70549;SDS011;58101;48.658;2.328;2023-04-30T08:10:11;19.48;;;9.27;;
70549;SDS011;58101;48.658;2.328;2023-04-30T08:12:37;19.85;;;9.30;;
70549;SDS011;58101;48.658;2.328;2023-04-30T08:15:03;19.67;;;8.68;;
70549;SDS011;58101;48.658;2.328;2023-04-30T08:17:31;19.50;;;9.18;;
70549;SDS011;58101;48.658;2.328;2023-04-30T08:19:58;20.05;;;9.73;;
70549;SDS011;58101;48.658;2.328;2023-04-30T08:22:25;19.98;;;9.27;;
70549;SDS011;58101;48.658;2.328;2023-04-30T08:24:51;20.00;;;8.85;;
70549;SDS011;58101;48.658;2.328;2023-04-30T08:27:17;19.42;;;9.23;;
70549;SDS011;58101;48.658;2.328;2023-04-30T08:29:42;20.75;;;9.85;;
70549;SDS011;58101;48.658;2.328;2023-04-30T08:32:08;19.30;;;9.07;;
70549;SDS011;58101;48.658;2.328;2023-04-30T08:34:34;18.55;;;9.13;;
70549;SDS011;58101;48.658;2.328;2023-04-30T08:37:00;19.08;;;9.38;;
70549;SDS011;58101;48.658;2.328;2023-04-30T08:39:26;18.05;;;9.25;;
70549;SDS011;58101;48.658;2.328;2023-04-30T08:41:55;18.38;;;9.10;;
70549;SDS011;58101;48.658;2.328;2023-04-30T08:44:23;19.52;;;9.15;;
70549;SDS011;58101;48.658;2.328;2023-04-30T08:46:52;17.95;;;9.25;;
70549;SDS011;58101;48.658;2.328;2023-04-30T08:49:21;18.90;;;9.40;;
70549;SDS011;58101;48.658;2.328;2023-04-30T08:51:49;17.85;;;9.30;;
70549;SDS011;58101;48.658;2.328;2023-04-30T08:54:16;18.05;;;8.63;;
70549;SDS011;58101;48.658;2.328;2023-04-30T08:56:45;18.65;;;8.07;;
70549;SDS011;58101;48.658;2.328;2023-04-30T08:59:12;17.23;;;8.70;;
70549;SDS011;58101;48.658;2.328;2023-04-30T09:01:38;18.88;;;9.43;;
70549;SDS011;58101;48.658;2.328;2023-04-30T09:07:30;15.02;;;8.02;;
70549;SDS011;58101;48.658;2.328;2023-04-30T09:10:20;17.08;;;8.52;;
70549;SDS011;58101;48.658;2.328;2023-04-30T09:12:58;14.88;;;8.05;;
70549;SDS011;58101;48.658;2.328;2023-04-30T09:15:40;15.70;;;8.82;;
70549;SDS011;58101;48.658;2.328;2023-04-30T09:18:18;14.50;;;8.15;;
70549;SDS011;58101;48.658;2.328;2023-04-30T09:21:00;14.02;;;7.55;;
70549;SDS011;58101;48.658;2.328;2023-04-30T09:23:27;14.35;;;7.55;;
70549;SDS011;58101;48.658;2.328;2023-04-30T09:25:57;12.45;;;7.35;;
70549;SDS011;58101;48.658;2.328;2023-04-30T09:28:24;13.63;;;7.18;;
70549;SDS011;58101;48.658;2.328;2023-04-30T09:30:53;13.15;;;7.80;;
70549;SDS011;58101;48.658;2.328;2023-04-30T09:33:21;12.10;;;6.45;;
70549;SDS011;58101;48.658;2.328;2023-04-30T09:35:47;12.15;;;6.78;;
70549;SDS011;58101;48.658;2.328;2023-04-30T09:40:56;12.88;;;7.47;;
70549;SDS011;58101;48.658;2.328;2023-04-30T09:43:31;14.10;;;7.07;;
70549;SDS011;58101;48.658;2.328;2023-04-30T09:45:58;12.25;;;7.18;;
70549;SDS011;58101;48.658;2.328;2023-04-30T09:48:24;16.60;;;10.23;;
70549;SDS011;58101;48.658;2.328;2023-04-30T09:51:03;13.70;;;8.07;;
70549;SDS011;58101;48.658;2.328;2023-04-30T09:54:02;13.30;;;7.45;;
70549;SDS011;58101;48.658;2.328;2023-04-30T09:56:34;12.50;;;6.97;;
70549;SDS011;58101;48.658;2.328;2023-04-30T09:59:03;13.70;;;7.57;;
70549;SDS011;58101;48.658;2.328;2023-04-30T10:01:33;11.88;;;7.03;;
70549;SDS011;58101;48.658;2.328;2023-04-30T10:04:01;14.18;;;7.22;;
70549;SDS011;58101;48.658;2.328;2023-04-30T10:06:28;15.25;;;9.50;;
70549;SDS011;58101;48.658;2.328;2023-04-30T10:08:59;12.20;;;7.50;;
70549;SDS011;58101;48.658;2.328;2023-04-30T10:11:33;13.18;;;7.65;;
70549;SDS011;58101;48.658;2.328;2023-04-30T10:14:10;12.25;;;7.00;;
70549;SDS011;58101;48.658;2.328;2023-04-30T10:16:46;10.95;;;7.05;;
70549;SDS011;58101;48.658;2.328;2023-04-30T10:19:29;11.82;;;6.63;;
70549;SDS011;58101;48.658;2.328;2023-04-30T10:22:00;11.02;;;5.60;;
70549;SDS011;58101;48.658;2.328;2023-04-30T10:24:29;11.88;;;6.22;;
70549;SDS011;58101;48.658;2.328;2023-04-30T10:26:57;11.52;;;6.32;;
70549;SDS011;58101;48.658;2.328;2023-04-30T10:29:24;11.02;;;6.68;;
70549;SDS011;58101;48.658;2.328;2023-04-30T10:31:50;12.32;;;6.22;;
70549;SDS011;58101;48.658;2.328;2023-04-30T10:40:07;12.45;;;6.30;;
70549;SDS011;58101;48.658;2.328;2023-04-30T10:42:34;13.48;;;6.97;;
70549;SDS011;58101;48.658;2.328;2023-04-30T10:45:04;11.82;;;6.68;;
70549;SDS011;58101;48.658;2.328;2023-04-30T10:50:52;10.60;;;5.70;;
70549;SDS011;58101;48.658;2.328;2023-04-30T10:53:29;10.25;;;5.72;;
70549;SDS011;58101;48.658;2.328;2023-04-30T10:59:27;11.40;;;6.15;;
70549;SDS011;58101;48.658;2.328;2023-04-30T11:01:56;11.88;;;6.40;;
70549;SDS011;58101;48.658;2.328;2023-04-30T11:04:25;14.30;;;9.07;;
70549;SDS011;58101;48.658;2.328;2023-04-30T11:07:00;9.52;;;5.30;;
70549;SDS011;58101;48.658;2.328;2023-04-30T11:09:43;8.48;;;4.70;;
70549;SDS011;58101;48.658;2.328;2023-04-30T11:12:19;11.25;;;4.75;;
70549;SDS011;58101;48.658;2.328;2023-04-30T11:14:52;11.30;;;5.63;;
70549;SDS011;58101;48.658;2.328;2023-04-30T11:17:31;9.50;;;4.68;;
70549;SDS011;58101;48.658;2.328;2023-04-30T11:19:58;9.30;;;4.65;;
70549;SDS011;58101;48.658;2.328;2023-04-30T11:22:27;9.13;;;4.50;;
70549;SDS011;58101;48.658;2.328;2023-04-30T11:25:12;9.80;;;4.28;;
70549;SDS011;58101;48.658;2.328;2023-04-30T11:27:43;7.95;;;3.78;;
70549;SDS011;58101;48.658;2.328;2023-04-30T11:30:13;8.98;;;4.50;;
70549;SDS011;58101;48.658;2.328;2023-04-30T11:32:46;8.10;;;4.07;;
70549;SDS011;58101;48.658;2.328;2023-04-30T11:35:17;9.30;;;4.38;;
70549;SDS011;58101;48.658;2.328;2023-04-30T11:37:46;10.63;;;4.15;;
70549;SDS011;58101;48.658;2.328;2023-04-30T11:40:15;9.38;;;3.80;;
70549;SDS011;58101;48.658;2.328;2023-04-30T11:42:54;8.70;;;3.55;;
70549;SDS011;58101;48.658;2.328;2023-04-30T11:45:57;6.95;;;3.33;;
70549;SDS011;58101;48.658;2.328;2023-04-30T11:48:23;10.38;;;3.40;;
70549;SDS011;58101;48.658;2.328;2023-04-30T11:50:49;7.10;;;2.95;;
70549;SDS011;58101;48.658;2.328;2023-04-30T11:53:14;8.45;;;3.35;;
70549;SDS011;58101;48.658;2.328;2023-04-30T11:55:40;7.05;;;3.20;;
70549;SDS011;58101;48.658;2.328;2023-04-30T11:58:07;7.50;;;3.30;;
70549;SDS011;58101;48.658;2.328;2023-04-30T12:00:34;8.23;;;3.17;;
70549;SDS011;58101;48.658;2.328;2023-04-30T12:03:12;8.82;;;3.22;;
70549;SDS011;58101;48.658;2.328;2023-04-30T12:05:44;8.88;;;3.38;;
70549;SDS011;58101;48.658;2.328;2023-04-30T12:08:11;6.82;;;3.15;;
70549;SDS011;58101;48.658;2.328;2023-04-30T12:10:37;7.18;;;3.13;;
70549;SDS011;58101;48.658;2.328;2023-04-30T12:13:05;7.43;;;3.30;;
70549;SDS011;58101;48.658;2.328;2023-04-30T12:15:31;7.60;;;3.63;;
70549;SDS011;58101;48.658;2.328;2023-04-30T12:17:58;7.75;;;3.40;;
70549;SDS011;58101;48.658;2.328;2023-04-30T12:20:25;8.20;;;3.88;;
70549;SDS011;58101;48.658;2.328;2023-04-30T12:22:52;7.40;;;3.47;;
70549;SDS011;58101;48.658;2.328;2023-04-30T12:27:45;7.95;;;3.78;;
70549;SDS011;58101;48.658;2.328;2023-04-30T12:30:12;8.60;;;3.85;;
70549;SDS011;58101;48.658;2.328;2023-04-30T12:32:44;8.57;;;4.07;;
70549;SDS011;58101;48.658;2.328;2023-04-30T12:35:29;9.73;;;4.40;;
70549;SDS011;58101;48.658;2.328;2023-04-30T12:38:04;8.93;;;4.30;;
70549;SDS011;58101;48.658;2.328;2023-04-30T12:40:32;7.75;;;3.53;;
70549;SDS011;58101;48.658;2.328;2023-04-30T12:43:04;10.48;;;4.28;;
70549;SDS011;58101;48.658;2.328;2023-04-30T12:45:50;9.73;;;4.22;;
70549;SDS011;58101;48.658;2.328;2023-04-30T12:50:47;8.27;;;3.60;;
70549;SDS011;58101;48.658;2.328;2023-04-30T12:53:34;8.80;;;3.90;;
70549;SDS011;58101;48.658;2.328;2023-04-30T12:56:13;7.40;;;3.30;;
70549;SDS011;58101;48.658;2.328;2023-04-30T12:58:44;6.88;;;3.17;;
70549;SDS011;58101;48.658;2.328;2023-04-30T13:01:12;8.75;;;3.53;;
70549;SDS011;58101;48.658;2.328;2023-04-30T13:03:42;9.15;;;3.90;;
70549;SDS011;58101;48.658;2.328;2023-04-30T13:06:07;8.27;;;3.92;;
70549;SDS011;58101;48.658;2.328;2023-04-30T13:08:34;8.55;;;3.83;;
70549;SDS011;58101;48.658;2.328;2023-04-30T13:11:00;8.35;;;3.70;;
70549;SDS011;58101;48.658;2.328;2023-04-30T13:13:26;8.07;;;3.83;;
70549;SDS011;58101;48.658;2.328;2023-04-30T13:15:52;9.43;;;3.50;;
70549;SDS011;58101;48.658;2.328;2023-04-30T13:18:18;10.13;;;3.88;;
70549;SDS011;58101;48.658;2.328;2023-04-30T15:48:05;8.40;;;4.03;;
70549;SDS011;58101;48.658;2.328;2023-04-30T15:50:31;9.70;;;3.75;;
70549;SDS011;58101;48.658;2.328;2023-04-30T15:52:57;9.13;;;4.00;;
70549;SDS011;58101;48.658;2.328;2023-04-30T15:55:23;9.10;;;4.05;;
70549;SDS011;58101;48.658;2.328;2023-04-30T15:57:50;7.80;;;3.67;;
70549;SDS011;58101;48.658;2.328;2023-04-30T16:00:16;10.45;;;3.92;;
70549;SDS011;58101;48.658;2.328;2023-04-30T16:02:42;8.25;;;3.83;;
70549;SDS011;58101;48.658;2.328;2023-04-30T16:05:08;7.65;;;3.60;;
70549;SDS011;58101;48.658;2.328;2023-04-30T16:07:34;8.10;;;3.85;;
70549;SDS011;58101;48.658;2.328;2023-04-30T16:10:00;7.93;;;3.58;;
70549;SDS011;58101;48.658;2.328;2023-04-30T16:12:27;9.30;;;4.07;;
70549;SDS011;58101;48.658;2.328;2023-04-30T16:14:53;8.85;;;3.42;;
70549;SDS011;58101;48.658;2.328;2023-04-30T16:17:19;8.52;;;3.70;;
70549;SDS011;58101;48.658;2.328;2023-04-30T16:19:45;7.38;;;3.33;;
70549;SDS011;58101;48.658;2.328;2023-04-30T16:22:11;8.40;;;3.75;;
70549;SDS011;58101;48.658;2.328;2023-04-30T16:24:40;9.27;;;4.15;;
70549;SDS011;58101;48.658;2.328;2023-04-30T16:27:08;10.18;;;4.32;;
70549;SDS011;58101;48.658;2.328;2023-04-30T16:29:34;9.23;;;4.00;;
70549;SDS011;58101;48.658;2.328;2023-04-30T16:32:03;8.30;;;3.90;;
70549;SDS011;58101;48.658;2.328;2023-04-30T16:34:29;8.75;;;4.10;;
70549;SDS011;58101;48.658;2.328;2023-04-30T16:36:54;8.65;;;4.00;;
70549;SDS011;58101;48.658;2.328;2023-04-30T16:39:20;9.80;;;4.35;;
70549;SDS011;58101;48.658;2.328;2023-04-30T16:44:21;7.95;;;3.72;;
70549;SDS011;58101;48.658;2.328;2023-04-30T16:46:47;8.35;;;3.55;;
70549;SDS011;58101;48.658;2.328;2023-04-30T16:49:13;8.90;;;3.80;;
70549;SDS011;58101;48.658;2.328;2023-04-30T16:51:38;9.23;;;3.47;;
70549;SDS011;58101;48.658;2.328;2023-04-30T16:54:04;10.75;;;3.95;;
70549;SDS011;58101;48.658;2.328;2023-04-30T16:59:53;9.73;;;4.05;;
70549;SDS011;58101;48.658;2.328;2023-04-30T17:02:19;8.98;;;3.95;;
70549;SDS011;58101;48.658;2.328;2023-04-30T17:04:45;8.45;;;3.40;;
70549;SDS011;58101;48.658;2.328;2023-04-30T17:07:10;9.02;;;3.97;;
70549;SDS011;58101;48.658;2.328;2023-04-30T17:09:36;9.35;;;4.30;;
70549;SDS011;58101;48.658;2.328;2023-04-30T17:12:02;9.50;;;3.97;;
70549;SDS011;58101;48.658;2.328;2023-04-30T17:17:25;9.63;;;4.10;;
70549;SDS011;58101;48.658;2.328;2023-04-30T17:19:51;9.05;;;3.88;;
70549;SDS011;58101;48.658;2.328;2023-04-30T17:22:16;8.00;;;3.55;;
70549;SDS011;58101;48.658;2.328;2023-04-30T17:24:44;8.20;;;3.83;;
70549;SDS011;58101;48.658;2.328;2023-04-30T17:27:13;8.98;;;3.72;;
70549;SDS011;58101;48.658;2.328;2023-04-30T17:29:39;8.38;;;3.78;;
70549;SDS011;58101;48.658;2.328;2023-04-30T17:32:05;10.00;;;4.00;;
70549;SDS011;58101;48.658;2.328;2023-04-30T17:34:30;8.10;;;3.78;;
70549;SDS011;58101;48.658;2.328;2023-04-30T17:36:56;8.75;;;3.67;;
70549;SDS011;58101;48.658;2.328;2023-04-30T17:39:22;8.02;;;3.58;;
70549;SDS011;58101;48.658;2.328;2023-04-30T17:41:48;7.95;;;3.20;;
70549;SDS011;58101;48.658;2.328;2023-04-30T17:44:17;8.50;;;3.50;;
70549;SDS011;58101;48.658;2.328;2023-04-30T17:46:43;8.43;;;3.47;;
70549;SDS011;58101;48.658;2.328;2023-04-30T17:49:09;8.77;;;3.78;;
70549;SDS011;58101;48.658;2.328;2023-04-30T17:51:38;10.07;;;4.35;;
70549;SDS011;58101;48.658;2.328;2023-04-30T17:54:04;8.40;;;3.67;;
70549;SDS011;58101;48.658;2.328;2023-04-30T17:56:30;8.70;;;3.97;;
70549;SDS011;58101;48.658;2.328;2023-04-30T17:58:56;9.07;;;3.97;;
70549;SDS011;58101;48.658;2.328;2023-04-30T18:01:22;8.52;;;3.58;;
70549;SDS011;58101;48.658;2.328;2023-04-30T18:03:48;8.38;;;3.80;;
70549;SDS011;58101;48.658;2.328;2023-04-30T18:06:14;9.23;;;3.60;;
70549;SDS011;58101;48.658;2.328;2023-04-30T18:08:40;8.25;;;3.63;;
70549;SDS011;58101;48.658;2.328;2023-04-30T18:11:06;8.35;;;3.90;;